sensor_id;sensor_type;location;lat;lon;timestamp;temperature;humidity
7648;DHT22;3866;48.020;11.720;2023-02-26T00:01:21;-1.10;99.90
7648;DHT22;3866;48.020;11.720;2023-02-26T00:03:48;-1.10;99.90
7648;DHT22;3866;48.020;11.720;2023-02-26T00:06:15;-1.10;99.90
7648;DHT22;3866;48.020;11.720;2023-02-26T00:08:42;-1.10;99.90
7648;DHT22;3866;48.020;11.720;2023-02-26T00:11:10;-1.10;99.90
7648;DHT22;3866;48.020;11.720;2023-02-26T00:13:40;-1.10;99.90
7648;DHT22;3866;48.020;11.720;2023-02-26T00:16:15;-1.10;99.90
7648;DHT22;3866;48.020;11.720;2023-02-26T00:18:49;-1.10;99.90
7648;DHT22;3866;48.020;11.720;2023-02-26T00:21:17;-1.10;99.90
7648;DHT22;3866;48.020;11.720;2023-02-26T00:23:45;-1.10;99.90
7648;DHT22;3866;48.020;11.720;2023-02-26T00:26:12;-1.10;99.90
7648;DHT22;3866;48.020;11.720;2023-02-26T00:28:40;-1.10;99.90
7648;DHT22;3866;48.020;11.720;2023-02-26T00:31:08;-1.10;99.90
7648;DHT22;3866;48.020;11.720;2023-02-26T00:33:36;-1.20;99.90
7648;DHT22;3866;48.020;11.720;2023-02-26T00:36:14;-1.10;99.90
7648;DHT22;3866;48.020;11.720;2023-02-26T00:38:50;-1.10;99.90
7648;DHT22;3866;48.020;11.720;2023-02-26T00:41:21;-1.10;99.90
7648;DHT22;3866;48.020;11.720;2023-02-26T00:43:50;-0.90;99.90
7648;DHT22;3866;48.020;11.720;2023-02-26T00:46:23;-1.20;99.90
7648;DHT22;3866;48.020;11.720;2023-02-26T00:49:00;-1.10;99.90
7648;DHT22;3866;48.020;11.720;2023-02-26T00:51:30;-1.10;99.90
7648;DHT22;3866;48.020;11.720;2023-02-26T00:54:03;-1.10;99.90
7648;DHT22;3866;48.020;11.720;2023-02-26T00:56:33;-1.10;99.90
7648;DHT22;3866;48.020;11.720;2023-02-26T00:59:01;-1.20;99.90
7648;DHT22;3866;48.020;11.720;2023-02-26T01:01:28;-1.20;99.90
7648;DHT22;3866;48.020;11.720;2023-02-26T01:03:55;-1.10;99.90
7648;DHT22;3866;48.020;11.720;2023-02-26T01:06:24;-1.10;99.90
7648;DHT22;3866;48.020;11.720;2023-02-26T01:09:01;-1.10;99.90
7648;DHT22;3866;48.020;11.720;2023-02-26T01:11:30;-1.20;99.90
7648;DHT22;3866;48.020;11.720;2023-02-26T01:13:57;-1.10;99.90
7648;DHT22;3866;48.020;11.720;2023-02-26T01:16:27;-1.10;99.90
7648;DHT22;3866;48.020;11.720;2023-02-26T01:19:00;-0.90;99.90
7648;DHT22;3866;48.020;11.720;2023-02-26T01:21:32;-0.90;99.90
7648;DHT22;3866;48.020;11.720;2023-02-26T01:24:02;-0.90;99.90
7648;DHT22;3866;48.020;11.720;2023-02-26T01:26:30;-0.90;99.90
7648;DHT22;3866;48.020;11.720;2023-02-26T01:28:58;-1.00;99.90
7648;DHT22;3866;48.020;11.720;2023-02-26T01:31:40;-0.90;99.90
7648;DHT22;3866;48.020;11.720;2023-02-26T01:34:14;-0.90;99.90
7648;DHT22;3866;48.020;11.720;2023-02-26T01:36:46;-0.90;99.90
7648;DHT22;3866;48.020;11.720;2023-02-26T01:39:21;-1.00;99.90
7648;DHT22;3866;48.020;11.720;2023-02-26T01:41:54;-0.90;99.90
7648;DHT22;3866;48.020;11.720;2023-02-26T01:44:26;-1.10;99.90
7648;DHT22;3866;48.020;11.720;2023-02-26T01:47:11;-1.20;99.90
7648;DHT22;3866;48.020;11.720;2023-02-26T01:49:41;-1.20;99.90
7648;DHT22;3866;48.020;11.720;2023-02-26T01:55:23;-1.20;99.90
7648;DHT22;3866;48.020;11.720;2023-02-26T01:57:52;-1.30;99.90
7648;DHT22;3866;48.020;11.720;2023-02-26T02:00:20;-1.50;99.90
7648;DHT22;3866;48.020;11.720;2023-02-26T02:02:48;-1.40;99.90
7648;DHT22;3866;48.020;11.720;2023-02-26T02:05:20;-1.50;99.90
7648;DHT22;3866;48.020;11.720;2023-02-26T02:07:48;-1.70;99.90
7648;DHT22;3866;48.020;11.720;2023-02-26T02:10:16;-1.70;99.90
7648;DHT22;3866;48.020;11.720;2023-02-26T02:12:49;-1.50;99.90
7648;DHT22;3866;48.020;11.720;2023-02-26T02:15:22;-1.60;99.90
7648;DHT22;3866;48.020;11.720;2023-02-26T02:18:00;-1.40;99.90
7648;DHT22;3866;48.020;11.720;2023-02-26T02:23:22;-1.60;99.90
7648;DHT22;3866;48.020;11.720;2023-02-26T02:26:27;-1.40;99.90
7648;DHT22;3866;48.020;11.720;2023-02-26T02:32:06;-1.50;99.90
7648;DHT22;3866;48.020;11.720;2023-02-26T02:34:39;-1.50;99.90
7648;DHT22;3866;48.020;11.720;2023-02-26T02:37:13;-1.40;99.90
7648;DHT22;3866;48.020;11.720;2023-02-26T02:39:45;-1.30;99.90
7648;DHT22;3866;48.020;11.720;2023-02-26T02:42:22;-1.50;99.90
7648;DHT22;3866;48.020;11.720;2023-02-26T02:44:55;-1.70;99.90
7648;DHT22;3866;48.020;11.720;2023-02-26T02:47:25;-1.50;99.90
7648;DHT22;3866;48.020;11.720;2023-02-26T02:49:58;-1.40;99.90
7648;DHT22;3866;48.020;11.720;2023-02-26T02:52:32;-1.70;99.90
7648;DHT22;3866;48.020;11.720;2023-02-26T02:55:04;-1.50;99.90
7648;DHT22;3866;48.020;11.720;2023-02-26T02:57:35;-1.60;99.90
7648;DHT22;3866;48.020;11.720;2023-02-26T03:00:08;-1.40;99.90
7648;DHT22;3866;48.020;11.720;2023-02-26T03:02:40;-1.50;99.90
7648;DHT22;3866;48.020;11.720;2023-02-26T03:05:09;-1.70;99.90
7648;DHT22;3866;48.020;11.720;2023-02-26T03:07:42;-1.80;99.90
7648;DHT22;3866;48.020;11.720;2023-02-26T03:10:10;-1.80;99.90
7648;DHT22;3866;48.020;11.720;2023-02-26T03:12:38;-1.90;99.90
7648;DHT22;3866;48.020;11.720;2023-02-26T03:15:06;-1.80;99.90
7648;DHT22;3866;48.020;11.720;2023-02-26T03:17:42;-1.90;99.90
7648;DHT22;3866;48.020;11.720;2023-02-26T03:20:18;-1.60;99.90
7648;DHT22;3866;48.020;11.720;2023-02-26T03:22:56;-1.80;99.90
7648;DHT22;3866;48.020;11.720;2023-02-26T03:25:33;-1.90;99.90
7648;DHT22;3866;48.020;11.720;2023-02-26T03:28:08;-2.10;99.90
7648;DHT22;3866;48.020;11.720;2023-02-26T03:30:40;-2.30;99.90
7648;DHT22;3866;48.020;11.720;2023-02-26T03:33:13;-2.20;99.90
7648;DHT22;3866;48.020;11.720;2023-02-26T03:35:47;-2.10;99.90
7648;DHT22;3866;48.020;11.720;2023-02-26T03:38:22;-2.10;99.90
7648;DHT22;3866;48.020;11.720;2023-02-26T03:40:55;-2.20;99.90
7648;DHT22;3866;48.020;11.720;2023-02-26T03:43:38;-2.10;99.90
7648;DHT22;3866;48.020;11.720;2023-02-26T03:46:12;-2.20;99.90
7648;DHT22;3866;48.020;11.720;2023-02-26T03:48:42;-2.20;99.90
7648;DHT22;3866;48.020;11.720;2023-02-26T03:51:11;-2.20;99.90
7648;DHT22;3866;48.020;11.720;2023-02-26T03:53:43;-2.30;99.90
7648;DHT22;3866;48.020;11.720;2023-02-26T03:56:16;-2.10;99.90
7648;DHT22;3866;48.020;11.720;2023-02-26T03:58:44;-2.30;99.90
7648;DHT22;3866;48.020;11.720;2023-02-26T04:01:15;-2.20;99.90
7648;DHT22;3866;48.020;11.720;2023-02-26T04:03:51;-2.20;99.90
7648;DHT22;3866;48.020;11.720;2023-02-26T04:06:19;-2.10;99.90
7648;DHT22;3866;48.020;11.720;2023-02-26T04:08:47;-2.20;99.90
7648;DHT22;3866;48.020;11.720;2023-02-26T04:11:15;-2.30;99.90
7648;DHT22;3866;48.020;11.720;2023-02-26T04:13:44;-2.40;99.90
7648;DHT22;3866;48.020;11.720;2023-02-26T04:16:11;-2.50;99.90
7648;DHT22;3866;48.020;11.720;2023-02-26T04:18:38;-2.50;99.90
7648;DHT22;3866;48.020;11.720;2023-02-26T04:21:10;-2.40;99.90
7648;DHT22;3866;48.020;11.720;2023-02-26T04:23:37;-2.40;99.90
7648;DHT22;3866;48.020;11.720;2023-02-26T04:26:04;-2.70;99.90
7648;DHT22;3866;48.020;11.720;2023-02-26T04:28:31;-2.70;99.90
7648;DHT22;3866;48.020;11.720;2023-02-26T04:30:59;-2.80;99.90
7648;DHT22;3866;48.020;11.720;2023-02-26T04:33:26;-2.60;99.90
7648;DHT22;3866;48.020;11.720;2023-02-26T04:35:53;-3.10;99.90
7648;DHT22;3866;48.020;11.720;2023-02-26T04:38:21;-3.00;99.90
7648;DHT22;3866;48.020;11.720;2023-02-26T04:40:48;-3.10;99.90
7648;DHT22;3866;48.020;11.720;2023-02-26T04:43:15;-3.00;99.90
7648;DHT22;3866;48.020;11.720;2023-02-26T04:45:44;-3.00;99.90
7648;DHT22;3866;48.020;11.720;2023-02-26T04:48:11;-3.10;99.90
7648;DHT22;3866;48.020;11.720;2023-02-26T04:50:38;-3.10;99.90
7648;DHT22;3866;48.020;11.720;2023-02-26T04:53:06;-3.20;99.90
7648;DHT22;3866;48.020;11.720;2023-02-26T04:55:34;-3.20;99.90
7648;DHT22;3866;48.020;11.720;2023-02-26T04:58:02;-3.20;99.90
7648;DHT22;3866;48.020;11.720;2023-02-26T05:00:29;-3.50;99.90
7648;DHT22;3866;48.020;11.720;2023-02-26T05:02:56;-3.60;99.90
7648;DHT22;3866;48.020;11.720;2023-02-26T05:05:23;-3.60;99.90
7648;DHT22;3866;48.020;11.720;2023-02-26T05:07:50;-3.40;99.90
7648;DHT22;3866;48.020;11.720;2023-02-26T05:10:19;-3.40;99.90
7648;DHT22;3866;48.020;11.720;2023-02-26T05:12:48;-3.40;99.90
7648;DHT22;3866;48.020;11.720;2023-02-26T05:15:15;-3.20;99.90
7648;DHT22;3866;48.020;11.720;2023-02-26T05:17:42;-3.20;99.90
7648;DHT22;3866;48.020;11.720;2023-02-26T05:20:10;-3.30;99.90
7648;DHT22;3866;48.020;11.720;2023-02-26T05:22:37;-3.00;99.90
7648;DHT22;3866;48.020;11.720;2023-02-26T05:25:05;-2.70;99.90
7648;DHT22;3866;48.020;11.720;2023-02-26T05:27:33;-2.90;99.90
7648;DHT22;3866;48.020;11.720;2023-02-26T05:30:01;-2.70;99.90
7648;DHT22;3866;48.020;11.720;2023-02-26T05:32:28;-2.80;99.90
7648;DHT22;3866;48.020;11.720;2023-02-26T05:34:55;-2.70;99.90
7648;DHT22;3866;48.020;11.720;2023-02-26T05:37:22;-2.70;99.90
7648;DHT22;3866;48.020;11.720;2023-02-26T05:39:49;-2.90;99.90
7648;DHT22;3866;48.020;11.720;2023-02-26T05:42:16;-2.90;99.90
7648;DHT22;3866;48.020;11.720;2023-02-26T05:44:42;-2.80;99.90
7648;DHT22;3866;48.020;11.720;2023-02-26T05:47:11;-3.00;99.90
7648;DHT22;3866;48.020;11.720;2023-02-26T05:49:38;-2.90;99.90
7648;DHT22;3866;48.020;11.720;2023-02-26T05:52:05;-2.70;99.90
7648;DHT22;3866;48.020;11.720;2023-02-26T05:54:31;-2.70;99.90
7648;DHT22;3866;48.020;11.720;2023-02-26T05:56:59;-2.80;99.90
7648;DHT22;3866;48.020;11.720;2023-02-26T05:59:26;-2.60;99.90
7648;DHT22;3866;48.020;11.720;2023-02-26T06:01:53;-2.40;99.90
7648;DHT22;3866;48.020;11.720;2023-02-26T06:04:21;-2.40;99.90
7648;DHT22;3866;48.020;11.720;2023-02-26T06:06:48;-2.40;99.90
7648;DHT22;3866;48.020;11.720;2023-02-26T06:09:15;-2.50;99.90
7648;DHT22;3866;48.020;11.720;2023-02-26T06:11:42;-2.40;99.90
7648;DHT22;3866;48.020;11.720;2023-02-26T06:14:09;-2.30;99.90
7648;DHT22;3866;48.020;11.720;2023-02-26T06:16:36;-2.50;99.90
7648;DHT22;3866;48.020;11.720;2023-02-26T06:19:02;-2.70;99.90
7648;DHT22;3866;48.020;11.720;2023-02-26T06:21:31;-2.60;99.90
7648;DHT22;3866;48.020;11.720;2023-02-26T06:23:58;-2.40;99.90
7648;DHT22;3866;48.020;11.720;2023-02-26T06:26:25;-2.50;99.90
7648;DHT22;3866;48.020;11.720;2023-02-26T06:28:52;-2.70;99.90
7648;DHT22;3866;48.020;11.720;2023-02-26T06:31:18;-2.70;99.90
7648;DHT22;3866;48.020;11.720;2023-02-26T06:33:45;-2.70;99.90
7648;DHT22;3866;48.020;11.720;2023-02-26T06:36:12;-2.80;99.90
7648;DHT22;3866;48.020;11.720;2023-02-26T06:38:40;-2.40;99.90
7648;DHT22;3866;48.020;11.720;2023-02-26T06:41:09;-2.70;99.90
7648;DHT22;3866;48.020;11.720;2023-02-26T06:43:37;-2.40;99.90
7648;DHT22;3866;48.020;11.720;2023-02-26T06:46:04;-2.60;99.90
7648;DHT22;3866;48.020;11.720;2023-02-26T06:48:31;-2.60;99.90
7648;DHT22;3866;48.020;11.720;2023-02-26T06:50:58;-2.80;99.90
7648;DHT22;3866;48.020;11.720;2023-02-26T06:53:25;-2.70;99.90
7648;DHT22;3866;48.020;11.720;2023-02-26T06:55:54;-2.60;99.90
7648;DHT22;3866;48.020;11.720;2023-02-26T06:58:21;-2.40;99.90
7648;DHT22;3866;48.020;11.720;2023-02-26T07:00:49;-2.40;99.90
7648;DHT22;3866;48.020;11.720;2023-02-26T07:03:17;-2.20;99.90
7648;DHT22;3866;48.020;11.720;2023-02-26T07:05:44;-2.20;99.90
7648;DHT22;3866;48.020;11.720;2023-02-26T07:08:11;-2.20;99.90
7648;DHT22;3866;48.020;11.720;2023-02-26T07:10:40;-2.20;99.90
7648;DHT22;3866;48.020;11.720;2023-02-26T07:13:08;-2.20;99.90
7648;DHT22;3866;48.020;11.720;2023-02-26T07:15:35;-2.30;99.90
7648;DHT22;3866;48.020;11.720;2023-02-26T07:18:02;-2.20;99.90
7648;DHT22;3866;48.020;11.720;2023-02-26T07:20:29;-2.20;99.90
7648;DHT22;3866;48.020;11.720;2023-02-26T07:22:57;-2.30;99.90
7648;DHT22;3866;48.020;11.720;2023-02-26T07:25:24;-2.10;99.90
7648;DHT22;3866;48.020;11.720;2023-02-26T07:27:51;-2.30;99.90
7648;DHT22;3866;48.020;11.720;2023-02-26T07:30:20;-2.10;99.90
7648;DHT22;3866;48.020;11.720;2023-02-26T07:32:47;-2.30;99.90
7648;DHT22;3866;48.020;11.720;2023-02-26T07:35:14;-2.80;99.90
7648;DHT22;3866;48.020;11.720;2023-02-26T07:37:41;-2.60;99.90
7648;DHT22;3866;48.020;11.720;2023-02-26T07:40:09;-2.50;99.90
7648;DHT22;3866;48.020;11.720;2023-02-26T07:42:36;-2.10;99.90
7648;DHT22;3866;48.020;11.720;2023-02-26T07:45:04;-2.60;99.90
7648;DHT22;3866;48.020;11.720;2023-02-26T07:47:34;-2.80;99.90
7648;DHT22;3866;48.020;11.720;2023-02-26T07:50:01;-2.60;99.90
7648;DHT22;3866;48.020;11.720;2023-02-26T07:52:28;-2.50;99.90
7648;DHT22;3866;48.020;11.720;2023-02-26T07:54:55;-2.20;99.90
7648;DHT22;3866;48.020;11.720;2023-02-26T07:57:22;-2.20;99.90
7648;DHT22;3866;48.020;11.720;2023-02-26T07:59:48;-2.10;99.90
7648;DHT22;3866;48.020;11.720;2023-02-26T08:02:15;-2.20;99.90
7648;DHT22;3866;48.020;11.720;2023-02-26T08:04:44;-2.60;99.90
7648;DHT22;3866;48.020;11.720;2023-02-26T08:07:11;-2.50;99.90
7648;DHT22;3866;48.020;11.720;2023-02-26T08:09:38;-2.40;99.90
7648;DHT22;3866;48.020;11.720;2023-02-26T08:12:05;-2.30;99.90
7648;DHT22;3866;48.020;11.720;2023-02-26T08:14:32;-2.30;99.90
7648;DHT22;3866;48.020;11.720;2023-02-26T08:16:59;-2.50;99.90
7648;DHT22;3866;48.020;11.720;2023-02-26T08:19:26;-2.40;99.90
7648;DHT22;3866;48.020;11.720;2023-02-26T08:21:54;-2.70;99.90
7648;DHT22;3866;48.020;11.720;2023-02-26T08:24:21;-2.50;99.90
7648;DHT22;3866;48.020;11.720;2023-02-26T08:26:48;-2.50;99.90
7648;DHT22;3866;48.020;11.720;2023-02-26T08:29:15;-2.70;99.90
7648;DHT22;3866;48.020;11.720;2023-02-26T08:31:42;-2.90;99.90
7648;DHT22;3866;48.020;11.720;2023-02-26T08:34:09;-2.90;99.90
7648;DHT22;3866;48.020;11.720;2023-02-26T08:36:36;-2.60;99.90
7648;DHT22;3866;48.020;11.720;2023-02-26T08:39:04;-2.30;99.90
7648;DHT22;3866;48.020;11.720;2023-02-26T08:41:32;-2.60;99.90
7648;DHT22;3866;48.020;11.720;2023-02-26T08:44:00;-2.70;99.90
7648;DHT22;3866;48.020;11.720;2023-02-26T08:46:28;-2.80;99.90
7648;DHT22;3866;48.020;11.720;2023-02-26T08:48:55;-2.60;99.90
7648;DHT22;3866;48.020;11.720;2023-02-26T08:51:22;-2.30;99.90
7648;DHT22;3866;48.020;11.720;2023-02-26T08:53:49;-2.40;99.90
7648;DHT22;3866;48.020;11.720;2023-02-26T08:56:17;-2.30;99.90
7648;DHT22;3866;48.020;11.720;2023-02-26T08:58:44;-2.40;99.90
7648;DHT22;3866;48.020;11.720;2023-02-26T09:01:11;-2.30;99.90
7648;DHT22;3866;48.020;11.720;2023-02-26T09:03:38;-2.40;99.90
7648;DHT22;3866;48.020;11.720;2023-02-26T09:06:05;-2.40;99.90
7648;DHT22;3866;48.020;11.720;2023-02-26T09:08:32;-2.20;99.90
7648;DHT22;3866;48.020;11.720;2023-02-26T09:10:59;-2.00;99.90
7648;DHT22;3866;48.020;11.720;2023-02-26T09:13:29;-1.90;99.90
7648;DHT22;3866;48.020;11.720;2023-02-26T09:15:56;-1.90;99.90
7648;DHT22;3866;48.020;11.720;2023-02-26T09:18:23;-1.90;99.90
7648;DHT22;3866;48.020;11.720;2023-02-26T09:20:50;-1.80;99.90
7648;DHT22;3866;48.020;11.720;2023-02-26T09:23:17;-1.80;99.90
7648;DHT22;3866;48.020;11.720;2023-02-26T09:25:44;-1.60;99.90
7648;DHT22;3866;48.020;11.720;2023-02-26T09:28:11;-1.90;99.90
7648;DHT22;3866;48.020;11.720;2023-02-26T09:30:39;-1.60;99.90
7648;DHT22;3866;48.020;11.720;2023-02-26T09:33:06;-1.80;99.90
7648;DHT22;3866;48.020;11.720;2023-02-26T09:35:34;-1.70;99.90
7648;DHT22;3866;48.020;11.720;2023-02-26T09:38:01;-1.80;99.90
7648;DHT22;3866;48.020;11.720;2023-02-26T09:40:39;-1.60;99.90
7648;DHT22;3866;48.020;11.720;2023-02-26T09:43:33;-1.70;99.90
7648;DHT22;3866;48.020;11.720;2023-02-26T09:46:04;-1.80;99.90
7648;DHT22;3866;48.020;11.720;2023-02-26T09:48:33;-1.50;99.90
7648;DHT22;3866;48.020;11.720;2023-02-26T09:51:02;-1.70;99.90
7648;DHT22;3866;48.020;11.720;2023-02-26T09:53:32;-2.00;99.90
7648;DHT22;3866;48.020;11.720;2023-02-26T09:56:03;-1.60;99.90
7648;DHT22;3866;48.020;11.720;2023-02-26T09:58:33;-1.70;99.90
7648;DHT22;3866;48.020;11.720;2023-02-26T10:01:07;-2.20;99.90
7648;DHT22;3866;48.020;11.720;2023-02-26T10:03:51;-2.20;99.90
7648;DHT22;3866;48.020;11.720;2023-02-26T10:06:24;-2.10;99.90
7648;DHT22;3866;48.020;11.720;2023-02-26T10:09:12;-2.00;99.90
7648;DHT22;3866;48.020;11.720;2023-02-26T10:11:47;-1.70;99.90
7648;DHT22;3866;48.020;11.720;2023-02-26T10:14:19;-1.60;99.90
7648;DHT22;3866;48.020;11.720;2023-02-26T10:16:54;-1.60;99.90
7648;DHT22;3866;48.020;11.720;2023-02-26T10:19:25;-1.50;99.90
7648;DHT22;3866;48.020;11.720;2023-02-26T10:21:56;-1.40;99.90
7648;DHT22;3866;48.020;11.720;2023-02-26T10:24:29;-1.20;99.90
7648;DHT22;3866;48.020;11.720;2023-02-26T10:27:12;-1.10;99.90
7648;DHT22;3866;48.020;11.720;2023-02-26T10:29:44;-1.10;99.90
7648;DHT22;3866;48.020;11.720;2023-02-26T10:32:20;-0.90;99.90
7648;DHT22;3866;48.020;11.720;2023-02-26T10:34:52;-1.20;99.90
7648;DHT22;3866;48.020;11.720;2023-02-26T10:37:27;-1.10;99.90
7648;DHT22;3866;48.020;11.720;2023-02-26T10:39:57;-1.20;99.90
7648;DHT22;3866;48.020;11.720;2023-02-26T10:42:29;-1.30;99.90
7648;DHT22;3866;48.020;11.720;2023-02-26T10:45:09;-1.00;99.90
7648;DHT22;3866;48.020;11.720;2023-02-26T10:47:47;-0.80;99.90
7648;DHT22;3866;48.020;11.720;2023-02-26T10:50:19;-1.00;99.90
7648;DHT22;3866;48.020;11.720;2023-02-26T10:52:48;-1.20;99.90
7648;DHT22;3866;48.020;11.720;2023-02-26T10:55:28;-1.30;99.90
7648;DHT22;3866;48.020;11.720;2023-02-26T10:58:03;-1.30;99.90
7648;DHT22;3866;48.020;11.720;2023-02-26T11:00:32;-1.20;99.90
7648;DHT22;3866;48.020;11.720;2023-02-26T11:03:03;-1.30;99.90
7648;DHT22;3866;48.020;11.720;2023-02-26T11:05:32;-1.10;99.90
7648;DHT22;3866;48.020;11.720;2023-02-26T11:08:02;-1.10;99.90
7648;DHT22;3866;48.020;11.720;2023-02-26T11:10:39;-1.10;99.90
7648;DHT22;3866;48.020;11.720;2023-02-26T11:13:07;-1.10;99.90
7648;DHT22;3866;48.020;11.720;2023-02-26T11:15:34;-0.90;99.90
7648;DHT22;3866;48.020;11.720;2023-02-26T11:18:03;-1.00;99.90
7648;DHT22;3866;48.020;11.720;2023-02-26T11:20:34;-1.00;99.90
7648;DHT22;3866;48.020;11.720;2023-02-26T11:23:03;-1.00;99.90
7648;DHT22;3866;48.020;11.720;2023-02-26T11:25:33;-1.10;99.90
7648;DHT22;3866;48.020;11.720;2023-02-26T11:28:03;-1.00;99.90
7648;DHT22;3866;48.020;11.720;2023-02-26T11:30:35;-1.20;99.90
7648;DHT22;3866;48.020;11.720;2023-02-26T11:33:15;-1.30;99.90
7648;DHT22;3866;48.020;11.720;2023-02-26T11:35:42;-0.80;99.90
7648;DHT22;3866;48.020;11.720;2023-02-26T11:38:16;-0.80;99.90
7648;DHT22;3866;48.020;11.720;2023-02-26T11:40:46;-0.80;99.90
7648;DHT22;3866;48.020;11.720;2023-02-26T11:43:15;-0.70;99.90
7648;DHT22;3866;48.020;11.720;2023-02-26T11:45:46;-0.40;99.90
7648;DHT22;3866;48.020;11.720;2023-02-26T11:48:18;-0.80;99.90
7648;DHT22;3866;48.020;11.720;2023-02-26T11:50:48;-0.70;99.90
7648;DHT22;3866;48.020;11.720;2023-02-26T11:53:18;-0.30;99.90
7648;DHT22;3866;48.020;11.720;2023-02-26T11:55:52;-0.10;99.90
7648;DHT22;3866;48.020;11.720;2023-02-26T11:58:24;0.30;99.90
7648;DHT22;3866;48.020;11.720;2023-02-26T12:00:54;0.50;99.90
7648;DHT22;3866;48.020;11.720;2023-02-26T12:03:27;0.40;99.90
7648;DHT22;3866;48.020;11.720;2023-02-26T12:05:56;0.40;99.90
7648;DHT22;3866;48.020;11.720;2023-02-26T12:08:29;0.70;99.90
7648;DHT22;3866;48.020;11.720;2023-02-26T12:11:10;0.80;99.90
7648;DHT22;3866;48.020;11.720;2023-02-26T12:13:50;0.60;99.90
7648;DHT22;3866;48.020;11.720;2023-02-26T12:16:27;0.40;99.90
7648;DHT22;3866;48.020;11.720;2023-02-26T12:19:02;0.30;99.90
7648;DHT22;3866;48.020;11.720;2023-02-26T12:21:52;0.30;99.90
7648;DHT22;3866;48.020;11.720;2023-02-26T12:24:36;-0.10;99.90
7648;DHT22;3866;48.020;11.720;2023-02-26T12:27:13;0.00;99.90
7648;DHT22;3866;48.020;11.720;2023-02-26T12:30:02;-0.20;99.90
7648;DHT22;3866;48.020;11.720;2023-02-26T12:32:49;-0.10;99.90
7648;DHT22;3866;48.020;11.720;2023-02-26T12:35:44;-0.10;99.90
7648;DHT22;3866;48.020;11.720;2023-02-26T12:38:23;0.20;99.90
7648;DHT22;3866;48.020;11.720;2023-02-26T12:41:23;-0.40;99.90
7648;DHT22;3866;48.020;11.720;2023-02-26T12:43:53;-0.20;99.90
7648;DHT22;3866;48.020;11.720;2023-02-26T12:46:36;-0.20;99.90
7648;DHT22;3866;48.020;11.720;2023-02-26T12:49:38;-0.30;99.90
7648;DHT22;3866;48.020;11.720;2023-02-26T12:52:24;-0.50;99.90
7648;DHT22;3866;48.020;11.720;2023-02-26T12:55:02;-0.60;99.90
7648;DHT22;3866;48.020;11.720;2023-02-26T12:58:01;-0.70;99.90
7648;DHT22;3866;48.020;11.720;2023-02-26T13:00:50;-0.70;99.90
7648;DHT22;3866;48.020;11.720;2023-02-26T13:03:42;-0.70;99.90
7648;DHT22;3866;48.020;11.720;2023-02-26T13:06:36;-0.60;99.90
7648;DHT22;3866;48.020;11.720;2023-02-26T13:09:16;-0.20;99.90
7648;DHT22;3866;48.020;11.720;2023-02-26T13:11:57;0.30;99.90
7648;DHT22;3866;48.020;11.720;2023-02-26T13:14:35;0.50;99.90
7648;DHT22;3866;48.020;11.720;2023-02-26T13:17:07;1.20;99.90
7648;DHT22;3866;48.020;11.720;2023-02-26T13:19:40;1.30;99.90
7648;DHT22;3866;48.020;11.720;2023-02-26T13:22:16;1.50;99.90
7648;DHT22;3866;48.020;11.720;2023-02-26T13:24:48;1.30;99.90
7648;DHT22;3866;48.020;11.720;2023-02-26T13:27:16;1.70;99.90
7648;DHT22;3866;48.020;11.720;2023-02-26T13:29:47;1.80;99.90
7648;DHT22;3866;48.020;11.720;2023-02-26T13:32:17;2.10;99.90
7648;DHT22;3866;48.020;11.720;2023-02-26T13:34:49;1.50;99.90
7648;DHT22;3866;48.020;11.720;2023-02-26T13:37:23;1.80;99.90
7648;DHT22;3866;48.020;11.720;2023-02-26T13:40:00;1.90;99.90
7648;DHT22;3866;48.020;11.720;2023-02-26T13:42:35;1.70;99.90
7648;DHT22;3866;48.020;11.720;2023-02-26T13:45:22;1.30;99.90
7648;DHT22;3866;48.020;11.720;2023-02-26T13:48:05;0.50;99.90
7648;DHT22;3866;48.020;11.720;2023-02-26T13:50:42;0.20;99.90
7648;DHT22;3866;48.020;11.720;2023-02-26T13:53:51;0.10;99.90
7648;DHT22;3866;48.020;11.720;2023-02-26T13:59:25;0.30;99.90
7648;DHT22;3866;48.020;11.720;2023-02-26T14:01:54;0.20;99.90
7648;DHT22;3866;48.020;11.720;2023-02-26T14:04:24;0.10;99.90
7648;DHT22;3866;48.020;11.720;2023-02-26T14:06:52;-0.10;99.90
7648;DHT22;3866;48.020;11.720;2023-02-26T14:09:42;-0.20;99.90
7648;DHT22;3866;48.020;11.720;2023-02-26T14:12:36;-0.40;99.90
7648;DHT22;3866;48.020;11.720;2023-02-26T14:15:27;-0.80;99.90
7648;DHT22;3866;48.020;11.720;2023-02-26T14:18:02;-1.00;99.90
7648;DHT22;3866;48.020;11.720;2023-02-26T14:20:31;-0.90;99.90
7648;DHT22;3866;48.020;11.720;2023-02-26T14:23:23;-0.70;99.90
7648;DHT22;3866;48.020;11.720;2023-02-26T14:25:53;-0.90;99.90
7648;DHT22;3866;48.020;11.720;2023-02-26T14:28:41;-0.90;99.90
7648;DHT22;3866;48.020;11.720;2023-02-26T14:31:17;-0.90;99.90
7648;DHT22;3866;48.020;11.720;2023-02-26T14:33:58;-0.70;99.90
7648;DHT22;3866;48.020;11.720;2023-02-26T14:36:34;-0.20;99.90
7648;DHT22;3866;48.020;11.720;2023-02-26T14:39:04;0.40;99.90
7648;DHT22;3866;48.020;11.720;2023-02-26T14:41:36;0.10;99.90
7648;DHT22;3866;48.020;11.720;2023-02-26T14:44:11;0.00;99.90
7648;DHT22;3866;48.020;11.720;2023-02-26T14:46:41;0.20;99.90
7648;DHT22;3866;48.020;11.720;2023-02-26T14:49:14;0.30;99.90
7648;DHT22;3866;48.020;11.720;2023-02-26T14:51:51;0.20;99.90
7648;DHT22;3866;48.020;11.720;2023-02-26T14:54:34;0.10;99.90
7648;DHT22;3866;48.020;11.720;2023-02-26T14:57:09;-0.40;99.90
7648;DHT22;3866;48.020;11.720;2023-02-26T14:59:52;-1.10;99.90
7648;DHT22;3866;48.020;11.720;2023-02-26T15:02:29;-1.60;99.90
7648;DHT22;3866;48.020;11.720;2023-02-26T15:05:28;-1.80;99.90
7648;DHT22;3866;48.020;11.720;2023-02-26T15:08:12;-1.70;99.90
7648;DHT22;3866;48.020;11.720;2023-02-26T15:10:50;-1.60;99.90
7648;DHT22;3866;48.020;11.720;2023-02-26T15:13:32;-1.50;99.90
7648;DHT22;3866;48.020;11.720;2023-02-26T15:16:10;-1.50;99.90
7648;DHT22;3866;48.020;11.720;2023-02-26T15:18:58;-1.50;99.90
7648;DHT22;3866;48.020;11.720;2023-02-26T15:21:33;-1.30;99.90
7648;DHT22;3866;48.020;11.720;2023-02-26T15:24:03;-1.00;99.90
7648;DHT22;3866;48.020;11.720;2023-02-26T15:26:33;-1.10;99.90
7648;DHT22;3866;48.020;11.720;2023-02-26T15:29:04;-0.90;99.90
7648;DHT22;3866;48.020;11.720;2023-02-26T15:31:36;-0.70;99.90
7648;DHT22;3866;48.020;11.720;2023-02-26T15:34:05;-0.60;99.90
7648;DHT22;3866;48.020;11.720;2023-02-26T15:36:32;-0.60;99.90
7648;DHT22;3866;48.020;11.720;2023-02-26T15:39:00;-0.60;99.90
7648;DHT22;3866;48.020;11.720;2023-02-26T15:41:30;-0.80;99.90
7648;DHT22;3866;48.020;11.720;2023-02-26T15:44:02;-0.70;99.90
7648;DHT22;3866;48.020;11.720;2023-02-26T15:46:33;-0.80;99.90
7648;DHT22;3866;48.020;11.720;2023-02-26T15:49:05;-0.70;99.90
7648;DHT22;3866;48.020;11.720;2023-02-26T15:51:34;-0.70;99.90
7648;DHT22;3866;48.020;11.720;2023-02-26T15:54:01;-0.70;99.90
7648;DHT22;3866;48.020;11.720;2023-02-26T15:56:33;-0.70;99.90
7648;DHT22;3866;48.020;11.720;2023-02-26T15:59:03;-0.40;99.90
7648;DHT22;3866;48.020;11.720;2023-02-26T16:01:32;-0.70;99.90
7648;DHT22;3866;48.020;11.720;2023-02-26T16:04:03;-0.50;99.90
7648;DHT22;3866;48.020;11.720;2023-02-26T16:06:33;-0.20;99.90
7648;DHT22;3866;48.020;11.720;2023-02-26T16:09:01;-0.30;99.90
7648;DHT22;3866;48.020;11.720;2023-02-26T16:11:34;-0.40;99.90
7648;DHT22;3866;48.020;11.720;2023-02-26T16:14:02;-0.60;99.90
7648;DHT22;3866;48.020;11.720;2023-02-26T16:16:38;-0.70;99.90
7648;DHT22;3866;48.020;11.720;2023-02-26T16:19:08;-0.60;99.90
7648;DHT22;3866;48.020;11.720;2023-02-26T16:21:38;-1.00;99.90
7648;DHT22;3866;48.020;11.720;2023-02-26T16:24:08;-0.80;99.90
7648;DHT22;3866;48.020;11.720;2023-02-26T16:26:40;-0.80;99.90
7648;DHT22;3866;48.020;11.720;2023-02-26T16:29:12;-0.60;99.90